Galena, Nevada
Current Conditions -  °F | °C
As of 6:55 PM on Friday 24 Oct 2014 (Local Time) from KRNO Reporting Station
Scattered Clouds Scattered Clouds  
Wind Chill: 69°   Ceiling: Unl
Heat Index: 69°   Visibility: 10mi
Dew Point: 22°   Wind: 8mph
Humidity: 17%   Direction: 200°SSW
Pressure: 29.95"   Gusts: NA
Location:  39.3905°N, 119.807°W
Report Text: KRNO 250155Z 20007KT 10SM SCT180 SCT250 21/M06 A2995 RMK AO2 SLP116 ACSL DSNT NW T02061056
Loading
Personal Weather Stations






























Interactive Weather Map
Tropical Storm Tracking
New forecast layout! Learn more

10-Day Weather Forecast

Advertisements
Track Severe Weather on mobile